sensor_id;sensor_type;location;lat;lon;timestamp;P1;durP1;ratioP1;P2;durP2;ratioP2
4274;SDS011;2151;50.988;11.068;2023-06-22T00:00:58;115.20;;;7.70;;
4274;SDS011;2151;50.988;11.068;2023-06-22T00:03:25;114.97;;;7.30;;
4274;SDS011;2151;50.988;11.068;2023-06-22T00:05:52;115.60;;;7.63;;
4274;SDS011;2151;50.988;11.068;2023-06-22T00:08:18;116.67;;;7.70;;
4274;SDS011;2151;50.988;11.068;2023-06-22T00:10:45;115.77;;;8.00;;
4274;SDS011;2151;50.988;11.068;2023-06-22T00:13:12;115.57;;;7.73;;
4274;SDS011;2151;50.988;11.068;2023-06-22T00:15:40;118.00;;;8.00;;
4274;SDS011;2151;50.988;11.068;2023-06-22T00:18:07;116.77;;;7.63;;
4274;SDS011;2151;50.988;11.068;2023-06-22T00:20:34;114.97;;;7.53;;
4274;SDS011;2151;50.988;11.068;2023-06-22T00:23:04;115.80;;;7.53;;
4274;SDS011;2151;50.988;11.068;2023-06-22T00:25:37;117.70;;;7.90;;
4274;SDS011;2151;50.988;11.068;2023-06-22T00:28:03;115.07;;;7.37;;
4274;SDS011;2151;50.988;11.068;2023-06-22T00:30:30;116.43;;;7.90;;
4274;SDS011;2151;50.988;11.068;2023-06-22T00:32:57;120.27;;;8.60;;
4274;SDS011;2151;50.988;11.068;2023-06-22T00:35:25;116.23;;;7.70;;
4274;SDS011;2151;50.988;11.068;2023-06-22T00:37:58;116.00;;;7.77;;
4274;SDS011;2151;50.988;11.068;2023-06-22T00:40:32;115.80;;;7.20;;
4274;SDS011;2151;50.988;11.068;2023-06-22T00:42:59;118.27;;;8.00;;
4274;SDS011;2151;50.988;11.068;2023-06-22T00:45:25;117.00;;;7.80;;
4274;SDS011;2151;50.988;11.068;2023-06-22T00:47:52;115.20;;;7.17;;
4274;SDS011;2151;50.988;11.068;2023-06-22T00:50:20;119.77;;;7.80;;
4274;SDS011;2151;50.988;11.068;2023-06-22T00:52:57;117.47;;;7.93;;
4274;SDS011;2151;50.988;11.068;2023-06-22T00:55:24;116.50;;;7.93;;
4274;SDS011;2151;50.988;11.068;2023-06-22T00:57:52;116.97;;;7.23;;
4274;SDS011;2151;50.988;11.068;2023-06-22T01:00:23;120.00;;;7.80;;
4274;SDS011;2151;50.988;11.068;2023-06-22T01:02:51;117.30;;;7.77;;
4274;SDS011;2151;50.988;11.068;2023-06-22T01:05:18;116.37;;;8.20;;
4274;SDS011;2151;50.988;11.068;2023-06-22T01:10:16;117.60;;;8.70;;
4274;SDS011;2151;50.988;11.068;2023-06-22T01:12:48;116.90;;;7.90;;
4274;SDS011;2151;50.988;11.068;2023-06-22T01:15:25;117.90;;;8.40;;
4274;SDS011;2151;50.988;11.068;2023-06-22T01:17:54;117.70;;;8.83;;
4274;SDS011;2151;50.988;11.068;2023-06-22T01:20:22;117.90;;;7.97;;
4274;SDS011;2151;50.988;11.068;2023-06-22T01:25:53;117.43;;;8.63;;
4274;SDS011;2151;50.988;11.068;2023-06-22T01:30:42;118.50;;;8.63;;
4274;SDS011;2151;50.988;11.068;2023-06-22T01:33:12;118.13;;;8.97;;
4274;SDS011;2151;50.988;11.068;2023-06-22T01:35:39;118.17;;;8.67;;
4274;SDS011;2151;50.988;11.068;2023-06-22T01:38:06;117.17;;;8.80;;
4274;SDS011;2151;50.988;11.068;2023-06-22T01:40:33;122.80;;;8.57;;
4274;SDS011;2151;50.988;11.068;2023-06-22T01:43:00;118.60;;;9.13;;
4274;SDS011;2151;50.988;11.068;2023-06-22T01:45:27;117.67;;;9.17;;
4274;SDS011;2151;50.988;11.068;2023-06-22T01:47:54;117.70;;;9.10;;
4274;SDS011;2151;50.988;11.068;2023-06-22T01:50:20;121.57;;;9.30;;
4274;SDS011;2151;50.988;11.068;2023-06-22T01:52:47;118.30;;;9.07;;
4274;SDS011;2151;50.988;11.068;2023-06-22T01:55:13;118.60;;;9.20;;
4274;SDS011;2151;50.988;11.068;2023-06-22T01:57:40;118.50;;;9.20;;
4274;SDS011;2151;50.988;11.068;2023-06-22T02:00:12;118.50;;;9.77;;
4274;SDS011;2151;50.988;11.068;2023-06-22T02:02:43;120.10;;;9.70;;
4274;SDS011;2151;50.988;11.068;2023-06-22T02:05:10;119.77;;;10.33;;
4274;SDS011;2151;50.988;11.068;2023-06-22T02:07:49;118.30;;;8.57;;
4274;SDS011;2151;50.988;11.068;2023-06-22T02:10:19;120.27;;;9.80;;
4274;SDS011;2151;50.988;11.068;2023-06-22T02:12:46;122.07;;;11.03;;
4274;SDS011;2151;50.988;11.068;2023-06-22T02:15:14;121.37;;;10.67;;
4274;SDS011;2151;50.988;11.068;2023-06-22T02:17:42;120.70;;;10.00;;
4274;SDS011;2151;50.988;11.068;2023-06-22T02:20:12;120.47;;;9.63;;
4274;SDS011;2151;50.988;11.068;2023-06-22T02:22:39;118.83;;;9.73;;
4274;SDS011;2151;50.988;11.068;2023-06-22T02:25:06;124.83;;;9.90;;
4274;SDS011;2151;50.988;11.068;2023-06-22T02:27:32;123.30;;;9.57;;
4274;SDS011;2151;50.988;11.068;2023-06-22T02:29:59;121.47;;;10.70;;
4274;SDS011;2151;50.988;11.068;2023-06-22T02:32:25;119.43;;;9.93;;
4274;SDS011;2151;50.988;11.068;2023-06-22T02:34:52;122.90;;;10.27;;
4274;SDS011;2151;50.988;11.068;2023-06-22T02:37:18;121.00;;;9.97;;
4274;SDS011;2151;50.988;11.068;2023-06-22T02:39:45;120.97;;;10.40;;
4274;SDS011;2151;50.988;11.068;2023-06-22T02:42:11;122.20;;;10.70;;
4274;SDS011;2151;50.988;11.068;2023-06-22T02:44:38;124.57;;;11.20;;
4274;SDS011;2151;50.988;11.068;2023-06-22T02:47:04;120.60;;;11.10;;
4274;SDS011;2151;50.988;11.068;2023-06-22T02:49:31;120.10;;;9.73;;
4274;SDS011;2151;50.988;11.068;2023-06-22T02:51:58;121.67;;;10.10;;
4274;SDS011;2151;50.988;11.068;2023-06-22T02:54:24;121.10;;;10.37;;
4274;SDS011;2151;50.988;11.068;2023-06-22T02:56:51;121.97;;;11.00;;
4274;SDS011;2151;50.988;11.068;2023-06-22T02:59:18;125.27;;;11.60;;
4274;SDS011;2151;50.988;11.068;2023-06-22T03:01:49;122.57;;;11.40;;
4274;SDS011;2151;50.988;11.068;2023-06-22T03:04:17;120.73;;;10.80;;
4274;SDS011;2151;50.988;11.068;2023-06-22T03:06:44;121.90;;;10.43;;
4274;SDS011;2151;50.988;11.068;2023-06-22T03:09:10;119.53;;;9.40;;
4274;SDS011;2151;50.988;11.068;2023-06-22T03:11:37;119.20;;;9.87;;
4274;SDS011;2151;50.988;11.068;2023-06-22T03:14:03;119.73;;;9.67;;
4274;SDS011;2151;50.988;11.068;2023-06-22T03:16:30;120.07;;;9.40;;
4274;SDS011;2151;50.988;11.068;2023-06-22T03:18:56;118.40;;;9.33;;
4274;SDS011;2151;50.988;11.068;2023-06-22T03:21:23;120.70;;;9.70;;
4274;SDS011;2151;50.988;11.068;2023-06-22T03:23:50;119.33;;;9.40;;
4274;SDS011;2151;50.988;11.068;2023-06-22T03:26:16;120.17;;;9.50;;
4274;SDS011;2151;50.988;11.068;2023-06-22T03:28:43;119.10;;;9.77;;
4274;SDS011;2151;50.988;11.068;2023-06-22T03:31:10;121.50;;;9.60;;
4274;SDS011;2151;50.988;11.068;2023-06-22T03:33:36;118.97;;;9.17;;
4274;SDS011;2151;50.988;11.068;2023-06-22T03:36:03;121.87;;;9.70;;
4274;SDS011;2151;50.988;11.068;2023-06-22T03:38:29;122.50;;;9.77;;
4274;SDS011;2151;50.988;11.068;2023-06-22T03:40:56;121.90;;;9.87;;
4274;SDS011;2151;50.988;11.068;2023-06-22T03:43:22;121.70;;;9.97;;
4274;SDS011;2151;50.988;11.068;2023-06-22T03:45:49;119.37;;;9.43;;
4274;SDS011;2151;50.988;11.068;2023-06-22T03:48:15;117.77;;;9.10;;
4274;SDS011;2151;50.988;11.068;2023-06-22T03:50:42;120.30;;;9.57;;
4274;SDS011;2151;50.988;11.068;2023-06-22T03:53:10;119.30;;;9.27;;
4274;SDS011;2151;50.988;11.068;2023-06-22T03:55:37;119.50;;;9.40;;
4274;SDS011;2151;50.988;11.068;2023-06-22T03:58:03;119.30;;;10.10;;
4274;SDS011;2151;50.988;11.068;2023-06-22T04:00:32;123.00;;;10.60;;
4274;SDS011;2151;50.988;11.068;2023-06-22T04:02:58;124.27;;;9.57;;
4274;SDS011;2151;50.988;11.068;2023-06-22T04:05:25;121.73;;;9.97;;
4274;SDS011;2151;50.988;11.068;2023-06-22T04:07:51;120.70;;;10.23;;
4274;SDS011;2151;50.988;11.068;2023-06-22T04:10:18;119.37;;;9.37;;
4274;SDS011;2151;50.988;11.068;2023-06-22T04:12:44;121.90;;;10.97;;
4274;SDS011;2151;50.988;11.068;2023-06-22T04:15:11;130.53;;;10.70;;
4274;SDS011;2151;50.988;11.068;2023-06-22T04:17:38;122.53;;;10.83;;
4274;SDS011;2151;50.988;11.068;2023-06-22T04:20:05;122.53;;;10.40;;
4274;SDS011;2151;50.988;11.068;2023-06-22T04:22:31;123.47;;;10.17;;
4274;SDS011;2151;50.988;11.068;2023-06-22T04:24:58;125.60;;;10.60;;
4274;SDS011;2151;50.988;11.068;2023-06-22T04:27:24;126.20;;;10.97;;
4274;SDS011;2151;50.988;11.068;2023-06-22T04:29:51;120.67;;;10.23;;
4274;SDS011;2151;50.988;11.068;2023-06-22T04:32:18;122.70;;;10.70;;
4274;SDS011;2151;50.988;11.068;2023-06-22T04:34:44;124.07;;;11.43;;
4274;SDS011;2151;50.988;11.068;2023-06-22T04:37:11;122.27;;;11.10;;
4274;SDS011;2151;50.988;11.068;2023-06-22T04:39:42;123.87;;;11.63;;
4274;SDS011;2151;50.988;11.068;2023-06-22T04:42:09;124.63;;;11.17;;
4274;SDS011;2151;50.988;11.068;2023-06-22T04:44:35;128.20;;;12.83;;
4274;SDS011;2151;50.988;11.068;2023-06-22T04:47:02;125.70;;;12.77;;
4274;SDS011;2151;50.988;11.068;2023-06-22T04:49:35;127.07;;;12.57;;
4274;SDS011;2151;50.988;11.068;2023-06-22T04:52:03;126.50;;;12.30;;
4274;SDS011;2151;50.988;11.068;2023-06-22T04:54:30;124.57;;;12.07;;
4274;SDS011;2151;50.988;11.068;2023-06-22T04:57:01;126.47;;;12.43;;
4274;SDS011;2151;50.988;11.068;2023-06-22T04:59:28;127.77;;;12.70;;
4274;SDS011;2151;50.988;11.068;2023-06-22T05:04:22;123.17;;;11.43;;
4274;SDS011;2151;50.988;11.068;2023-06-22T05:06:52;125.60;;;12.20;;
4274;SDS011;2151;50.988;11.068;2023-06-22T05:09:18;123.53;;;12.13;;
4274;SDS011;2151;50.988;11.068;2023-06-22T05:11:46;122.33;;;11.60;;
4274;SDS011;2151;50.988;11.068;2023-06-22T05:14:13;126.83;;;11.73;;
4274;SDS011;2151;50.988;11.068;2023-06-22T05:16:40;124.17;;;12.50;;
4274;SDS011;2151;50.988;11.068;2023-06-22T05:19:07;134.43;;;13.37;;
4274;SDS011;2151;50.988;11.068;2023-06-22T05:21:34;126.37;;;12.00;;
4274;SDS011;2151;50.988;11.068;2023-06-22T05:24:01;125.20;;;12.93;;
4274;SDS011;2151;50.988;11.068;2023-06-22T05:26:29;129.17;;;12.83;;
4274;SDS011;2151;50.988;11.068;2023-06-22T05:28:56;127.07;;;11.87;;
4274;SDS011;2151;50.988;11.068;2023-06-22T05:31:23;123.47;;;12.20;;
4274;SDS011;2151;50.988;11.068;2023-06-22T05:33:51;122.80;;;12.43;;
4274;SDS011;2151;50.988;11.068;2023-06-22T05:36:18;124.27;;;12.93;;
4274;SDS011;2151;50.988;11.068;2023-06-22T05:38:46;126.27;;;12.33;;
4274;SDS011;2151;50.988;11.068;2023-06-22T05:41:12;123.97;;;12.40;;
4274;SDS011;2151;50.988;11.068;2023-06-22T05:43:40;125.77;;;14.47;;
4274;SDS011;2151;50.988;11.068;2023-06-22T05:46:06;132.57;;;14.87;;
4274;SDS011;2151;50.988;11.068;2023-06-22T05:48:34;129.27;;;13.53;;
4274;SDS011;2151;50.988;11.068;2023-06-22T05:51:02;126.57;;;13.00;;
4274;SDS011;2151;50.988;11.068;2023-06-22T05:53:28;126.57;;;13.80;;
4274;SDS011;2151;50.988;11.068;2023-06-22T05:55:55;125.77;;;13.70;;
4274;SDS011;2151;50.988;11.068;2023-06-22T05:58:21;127.60;;;13.30;;
4274;SDS011;2151;50.988;11.068;2023-06-22T06:00:49;126.30;;;12.87;;
4274;SDS011;2151;50.988;11.068;2023-06-22T06:03:22;124.17;;;12.90;;
4274;SDS011;2151;50.988;11.068;2023-06-22T06:05:58;127.30;;;13.27;;
4274;SDS011;2151;50.988;11.068;2023-06-22T06:08:33;122.40;;;12.80;;
4274;SDS011;2151;50.988;11.068;2023-06-22T06:11:09;126.00;;;13.30;;
4274;SDS011;2151;50.988;11.068;2023-06-22T06:13:39;122.30;;;13.27;;
4274;SDS011;2151;50.988;11.068;2023-06-22T06:16:10;124.17;;;13.23;;
4274;SDS011;2151;50.988;11.068;2023-06-22T06:18:38;123.40;;;13.20;;
4274;SDS011;2151;50.988;11.068;2023-06-22T06:21:06;123.07;;;12.93;;
4274;SDS011;2151;50.988;11.068;2023-06-22T06:23:34;126.70;;;14.17;;
4274;SDS011;2151;50.988;11.068;2023-06-22T06:26:01;123.30;;;12.80;;
4274;SDS011;2151;50.988;11.068;2023-06-22T06:28:30;122.47;;;12.97;;
4274;SDS011;2151;50.988;11.068;2023-06-22T06:30:57;124.63;;;14.70;;
4274;SDS011;2151;50.988;11.068;2023-06-22T06:33:25;126.33;;;13.93;;
4274;SDS011;2151;50.988;11.068;2023-06-22T06:35:53;123.70;;;13.33;;
4274;SDS011;2151;50.988;11.068;2023-06-22T06:38:23;129.53;;;15.23;;
4274;SDS011;2151;50.988;11.068;2023-06-22T06:40:51;125.50;;;13.40;;
4274;SDS011;2151;50.988;11.068;2023-06-22T06:43:19;127.20;;;14.43;;
4274;SDS011;2151;50.988;11.068;2023-06-22T06:45:47;127.67;;;14.47;;
4274;SDS011;2151;50.988;11.068;2023-06-22T06:48:18;123.50;;;14.07;;
4274;SDS011;2151;50.988;11.068;2023-06-22T06:50:46;132.30;;;13.50;;
4274;SDS011;2151;50.988;11.068;2023-06-22T06:53:14;126.20;;;13.87;;
4274;SDS011;2151;50.988;11.068;2023-06-22T06:55:42;122.07;;;12.70;;
4274;SDS011;2151;50.988;11.068;2023-06-22T06:58:11;128.03;;;13.10;;
4274;SDS011;2151;50.988;11.068;2023-06-22T07:00:41;124.67;;;13.83;;
4274;SDS011;2151;50.988;11.068;2023-06-22T07:03:13;122.27;;;13.40;;
4274;SDS011;2151;50.988;11.068;2023-06-22T07:05:48;121.77;;;12.53;;
4274;SDS011;2151;50.988;11.068;2023-06-22T07:08:22;123.17;;;13.47;;
4274;SDS011;2151;50.988;11.068;2023-06-22T07:10:59;119.50;;;12.40;;
4274;SDS011;2151;50.988;11.068;2023-06-22T07:13:36;120.17;;;13.00;;
4274;SDS011;2151;50.988;11.068;2023-06-22T07:16:13;119.70;;;11.80;;
4274;SDS011;2151;50.988;11.068;2023-06-22T07:18:43;125.03;;;13.60;;
4274;SDS011;2151;50.988;11.068;2023-06-22T07:21:15;124.10;;;14.40;;
4274;SDS011;2151;50.988;11.068;2023-06-22T07:23:46;121.27;;;13.10;;
4274;SDS011;2151;50.988;11.068;2023-06-22T07:26:14;122.77;;;14.30;;
4274;SDS011;2151;50.988;11.068;2023-06-22T07:28:44;118.60;;;13.73;;
4274;SDS011;2151;50.988;11.068;2023-06-22T07:31:12;121.20;;;12.70;;
4274;SDS011;2151;50.988;11.068;2023-06-22T07:33:40;120.47;;;12.63;;
4274;SDS011;2151;50.988;11.068;2023-06-22T07:36:08;123.27;;;12.27;;
4274;SDS011;2151;50.988;11.068;2023-06-22T07:38:35;118.87;;;11.80;;
4274;SDS011;2151;50.988;11.068;2023-06-22T07:41:03;119.97;;;12.20;;
4274;SDS011;2151;50.988;11.068;2023-06-22T07:43:32;119.97;;;11.97;;
4274;SDS011;2151;50.988;11.068;2023-06-22T07:46:01;116.97;;;11.40;;
4274;SDS011;2151;50.988;11.068;2023-06-22T07:48:30;118.30;;;11.33;;
4274;SDS011;2151;50.988;11.068;2023-06-22T07:50:58;117.17;;;10.63;;
4274;SDS011;2151;50.988;11.068;2023-06-22T07:53:25;114.70;;;11.63;;
4274;SDS011;2151;50.988;11.068;2023-06-22T07:55:53;114.50;;;11.93;;
4274;SDS011;2151;50.988;11.068;2023-06-22T07:58:21;117.73;;;12.43;;
4274;SDS011;2151;50.988;11.068;2023-06-22T08:00:47;116.57;;;12.07;;
4274;SDS011;2151;50.988;11.068;2023-06-22T08:03:15;124.70;;;11.47;;
4274;SDS011;2151;50.988;11.068;2023-06-22T08:05:42;119.87;;;10.10;;
4274;SDS011;2151;50.988;11.068;2023-06-22T08:08:08;115.80;;;10.47;;
4274;SDS011;2151;50.988;11.068;2023-06-22T08:10:35;113.67;;;10.47;;
4274;SDS011;2151;50.988;11.068;2023-06-22T08:13:02;112.27;;;10.57;;
4274;SDS011;2151;50.988;11.068;2023-06-22T08:15:29;115.37;;;10.43;;
4274;SDS011;2151;50.988;11.068;2023-06-22T08:17:56;112.90;;;10.40;;
4274;SDS011;2151;50.988;11.068;2023-06-22T08:20:24;113.10;;;10.00;;
4274;SDS011;2151;50.988;11.068;2023-06-22T08:22:50;111.30;;;9.90;;
4274;SDS011;2151;50.988;11.068;2023-06-22T08:25:17;111.47;;;9.97;;
4274;SDS011;2151;50.988;11.068;2023-06-22T08:27:47;112.77;;;9.53;;
4274;SDS011;2151;50.988;11.068;2023-06-22T08:30:14;121.60;;;9.37;;
4274;SDS011;2151;50.988;11.068;2023-06-22T08:32:41;110.67;;;9.60;;
4274;SDS011;2151;50.988;11.068;2023-06-22T08:35:09;110.30;;;9.70;;
4274;SDS011;2151;50.988;11.068;2023-06-22T08:37:36;110.53;;;8.90;;
4274;SDS011;2151;50.988;11.068;2023-06-22T08:40:03;110.40;;;9.97;;
4274;SDS011;2151;50.988;11.068;2023-06-22T08:42:35;110.33;;;10.07;;
4274;SDS011;2151;50.988;11.068;2023-06-22T08:45:01;111.87;;;9.20;;
4274;SDS011;2151;50.988;11.068;2023-06-22T08:47:30;112.13;;;8.77;;
4274;SDS011;2151;50.988;11.068;2023-06-22T08:49:57;112.07;;;10.03;;
4274;SDS011;2151;50.988;11.068;2023-06-22T08:52:23;109.50;;;8.80;;
4274;SDS011;2151;50.988;11.068;2023-06-22T08:54:50;109.60;;;8.73;;
4274;SDS011;2151;50.988;11.068;2023-06-22T08:57:17;115.37;;;9.40;;
4274;SDS011;2151;50.988;11.068;2023-06-22T08:59:44;110.90;;;9.10;;
4274;SDS011;2151;50.988;11.068;2023-06-22T09:02:10;113.37;;;9.53;;
4274;SDS011;2151;50.988;11.068;2023-06-22T09:04:37;109.13;;;9.23;;
4274;SDS011;2151;50.988;11.068;2023-06-22T09:07:04;109.70;;;9.37;;
4274;SDS011;2151;50.988;11.068;2023-06-22T09:09:30;109.37;;;9.10;;
4274;SDS011;2151;50.988;11.068;2023-06-22T09:11:57;109.57;;;8.50;;
4274;SDS011;2151;50.988;11.068;2023-06-22T09:14:23;111.63;;;9.20;;
4274;SDS011;2151;50.988;11.068;2023-06-22T09:16:49;108.20;;;8.70;;
4274;SDS011;2151;50.988;11.068;2023-06-22T09:19:16;111.10;;;8.90;;
4274;SDS011;2151;50.988;11.068;2023-06-22T09:21:42;109.00;;;8.83;;
4274;SDS011;2151;50.988;11.068;2023-06-22T09:24:09;110.10;;;9.13;;
4274;SDS011;2151;50.988;11.068;2023-06-22T09:26:35;106.70;;;8.90;;
4274;SDS011;2151;50.988;11.068;2023-06-22T09:29:04;108.40;;;8.97;;
4274;SDS011;2151;50.988;11.068;2023-06-22T09:31:32;109.10;;;8.50;;
4274;SDS011;2151;50.988;11.068;2023-06-22T09:33:58;111.40;;;9.83;;
4274;SDS011;2151;50.988;11.068;2023-06-22T09:36:25;107.80;;;9.40;;
4274;SDS011;2151;50.988;11.068;2023-06-22T09:38:51;108.53;;;9.60;;
4274;SDS011;2151;50.988;11.068;2023-06-22T09:41:22;110.60;;;9.10;;
4274;SDS011;2151;50.988;11.068;2023-06-22T09:46:56;113.30;;;9.50;;
4274;SDS011;2151;50.988;11.068;2023-06-22T09:49:23;111.13;;;8.20;;
4274;SDS011;2151;50.988;11.068;2023-06-22T09:52:09;113.50;;;9.37;;
4274;SDS011;2151;50.988;11.068;2023-06-22T09:54:37;107.20;;;9.23;;
4274;SDS011;2151;50.988;11.068;2023-06-22T09:57:05;106.47;;;8.60;;
4274;SDS011;2151;50.988;11.068;2023-06-22T09:59:31;109.30;;;9.30;;
4274;SDS011;2151;50.988;11.068;2023-06-22T10:01:58;107.13;;;9.67;;
4274;SDS011;2151;50.988;11.068;2023-06-22T10:04:24;109.70;;;9.23;;
4274;SDS011;2151;50.988;11.068;2023-06-22T10:06:52;108.70;;;8.67;;
4274;SDS011;2151;50.988;11.068;2023-06-22T10:09:18;111.57;;;8.77;;
4274;SDS011;2151;50.988;11.068;2023-06-22T10:11:45;107.87;;;9.23;;
4274;SDS011;2151;50.988;11.068;2023-06-22T10:14:11;110.40;;;8.77;;
4274;SDS011;2151;50.988;11.068;2023-06-22T10:16:37;112.23;;;9.30;;
4274;SDS011;2151;50.988;11.068;2023-06-22T10:19:04;112.83;;;9.07;;
4274;SDS011;2151;50.988;11.068;2023-06-22T10:21:30;107.70;;;9.00;;
4274;SDS011;2151;50.988;11.068;2023-06-22T10:23:57;109.30;;;9.40;;
4274;SDS011;2151;50.988;11.068;2023-06-22T10:26:24;110.00;;;9.10;;
4274;SDS011;2151;50.988;11.068;2023-06-22T10:28:50;107.73;;;8.37;;
4274;SDS011;2151;50.988;11.068;2023-06-22T10:31:25;106.37;;;8.10;;
4274;SDS011;2151;50.988;11.068;2023-06-22T10:33:54;108.70;;;8.70;;
4274;SDS011;2151;50.988;11.068;2023-06-22T10:36:21;105.20;;;7.83;;
4274;SDS011;2151;50.988;11.068;2023-06-22T10:38:47;106.97;;;8.90;;
4274;SDS011;2151;50.988;11.068;2023-06-22T10:41:14;108.90;;;8.60;;
4274;SDS011;2151;50.988;11.068;2023-06-22T10:43:42;104.50;;;8.10;;
4274;SDS011;2151;50.988;11.068;2023-06-22T10:46:09;106.90;;;9.13;;
4274;SDS011;2151;50.988;11.068;2023-06-22T10:48:35;103.97;;;7.03;;
4274;SDS011;2151;50.988;11.068;2023-06-22T10:51:02;105.57;;;8.83;;
4274;SDS011;2151;50.988;11.068;2023-06-22T10:53:28;106.60;;;8.07;;
4274;SDS011;2151;50.988;11.068;2023-06-22T10:55:55;104.30;;;8.10;;
4274;SDS011;2151;50.988;11.068;2023-06-22T10:58:23;105.17;;;7.63;;
4274;SDS011;2151;50.988;11.068;2023-06-22T11:00:49;104.77;;;8.70;;
4274;SDS011;2151;50.988;11.068;2023-06-22T11:03:16;110.77;;;8.03;;
4274;SDS011;2151;50.988;11.068;2023-06-22T11:05:42;106.50;;;7.90;;
4274;SDS011;2151;50.988;11.068;2023-06-22T11:08:09;105.90;;;7.70;;
4274;SDS011;2151;50.988;11.068;2023-06-22T11:10:35;103.70;;;7.67;;
4274;SDS011;2151;50.988;11.068;2023-06-22T11:13:02;106.07;;;10.90;;
4274;SDS011;2151;50.988;11.068;2023-06-22T11:15:30;105.17;;;8.50;;
4274;SDS011;2151;50.988;11.068;2023-06-22T11:17:57;104.43;;;8.07;;
4274;SDS011;2151;50.988;11.068;2023-06-22T11:20:24;104.00;;;8.33;;
4274;SDS011;2151;50.988;11.068;2023-06-22T11:22:50;108.10;;;8.57;;
4274;SDS011;2151;50.988;11.068;2023-06-22T11:25:16;107.20;;;8.40;;
4274;SDS011;2151;50.988;11.068;2023-06-22T11:27:43;105.37;;;8.50;;
4274;SDS011;2151;50.988;11.068;2023-06-22T11:30:09;105.13;;;7.97;;
4274;SDS011;2151;50.988;11.068;2023-06-22T11:32:36;105.27;;;8.07;;
4274;SDS011;2151;50.988;11.068;2023-06-22T11:35:03;111.30;;;8.70;;
4274;SDS011;2151;50.988;11.068;2023-06-22T11:37:29;106.47;;;8.33;;
4274;SDS011;2151;50.988;11.068;2023-06-22T11:39:56;108.90;;;7.30;;
4274;SDS011;2151;50.988;11.068;2023-06-22T11:42:32;108.10;;;7.63;;
4274;SDS011;2151;50.988;11.068;2023-06-22T11:44:58;108.70;;;8.30;;
4274;SDS011;2151;50.988;11.068;2023-06-22T11:47:25;107.03;;;8.47;;
4274;SDS011;2151;50.988;11.068;2023-06-22T11:49:51;109.30;;;8.00;;
4274;SDS011;2151;50.988;11.068;2023-06-22T11:52:18;106.60;;;8.70;;
4274;SDS011;2151;50.988;11.068;2023-06-22T11:54:45;107.00;;;7.40;;
4274;SDS011;2151;50.988;11.068;2023-06-22T11:57:12;106.60;;;7.20;;
4274;SDS011;2151;50.988;11.068;2023-06-22T11:59:38;105.63;;;8.00;;
4274;SDS011;2151;50.988;11.068;2023-06-22T12:02:05;114.87;;;8.40;;
4274;SDS011;2151;50.988;11.068;2023-06-22T12:04:33;107.40;;;8.00;;
4274;SDS011;2151;50.988;11.068;2023-06-22T12:07:00;108.47;;;8.83;;
4274;SDS011;2151;50.988;11.068;2023-06-22T12:09:26;110.47;;;8.20;;
4274;SDS011;2151;50.988;11.068;2023-06-22T12:11:53;112.20;;;8.90;;
4274;SDS011;2151;50.988;11.068;2023-06-22T12:14:19;104.20;;;7.80;;
4274;SDS011;2151;50.988;11.068;2023-06-22T12:16:47;105.70;;;8.40;;
4274;SDS011;2151;50.988;11.068;2023-06-22T12:19:14;110.27;;;8.80;;
4274;SDS011;2151;50.988;11.068;2023-06-22T12:21:40;105.57;;;8.47;;
4274;SDS011;2151;50.988;11.068;2023-06-22T12:24:07;106.60;;;7.90;;
4274;SDS011;2151;50.988;11.068;2023-06-22T12:26:33;104.37;;;7.80;;
4274;SDS011;2151;50.988;11.068;2023-06-22T12:29:00;106.17;;;8.70;;
4274;SDS011;2151;50.988;11.068;2023-06-22T12:31:26;106.50;;;7.93;;
4274;SDS011;2151;50.988;11.068;2023-06-22T12:33:53;107.90;;;8.17;;
4274;SDS011;2151;50.988;11.068;2023-06-22T12:36:19;106.60;;;7.73;;
4274;SDS011;2151;50.988;11.068;2023-06-22T12:38:46;108.90;;;7.97;;
4274;SDS011;2151;50.988;11.068;2023-06-22T12:41:12;105.77;;;8.10;;
4274;SDS011;2151;50.988;11.068;2023-06-22T12:43:40;107.87;;;8.17;;
4274;SDS011;2151;50.988;11.068;2023-06-22T12:46:06;118.43;;;9.00;;
4274;SDS011;2151;50.988;11.068;2023-06-22T12:48:33;107.80;;;8.20;;
4274;SDS011;2151;50.988;11.068;2023-06-22T12:51:00;103.50;;;7.10;;
4274;SDS011;2151;50.988;11.068;2023-06-22T12:53:26;106.87;;;7.67;;
4274;SDS011;2151;50.988;11.068;2023-06-22T12:55:53;103.70;;;7.50;;
4274;SDS011;2151;50.988;11.068;2023-06-22T12:58:20;106.67;;;8.00;;
4274;SDS011;2151;50.988;11.068;2023-06-22T13:00:46;106.63;;;8.23;;
4274;SDS011;2151;50.988;11.068;2023-06-22T13:03:13;103.47;;;7.67;;
4274;SDS011;2151;50.988;11.068;2023-06-22T13:05:39;106.43;;;8.40;;
4274;SDS011;2151;50.988;11.068;2023-06-22T13:08:06;102.87;;;7.27;;
4274;SDS011;2151;50.988;11.068;2023-06-22T13:10:32;110.97;;;7.97;;
4274;SDS011;2151;50.988;11.068;2023-06-22T13:12:59;105.17;;;8.40;;
4274;SDS011;2151;50.988;11.068;2023-06-22T13:15:30;106.20;;;8.30;;
4274;SDS011;2151;50.988;11.068;2023-06-22T13:17:57;105.73;;;8.13;;
4274;SDS011;2151;50.988;11.068;2023-06-22T13:20:23;105.97;;;7.90;;
4274;SDS011;2151;50.988;11.068;2023-06-22T13:22:50;108.37;;;8.70;;
4274;SDS011;2151;50.988;11.068;2023-06-22T13:25:16;104.90;;;8.40;;
4274;SDS011;2151;50.988;11.068;2023-06-22T13:27:45;109.43;;;9.20;;
4274;SDS011;2151;50.988;11.068;2023-06-22T13:30:12;114.97;;;9.20;;
4274;SDS011;2151;50.988;11.068;2023-06-22T13:32:40;108.10;;;8.80;;
4274;SDS011;2151;50.988;11.068;2023-06-22T13:35:09;114.33;;;8.43;;
4274;SDS011;2151;50.988;11.068;2023-06-22T13:37:36;106.27;;;8.50;;
4274;SDS011;2151;50.988;11.068;2023-06-22T13:40:02;106.90;;;8.50;;
4274;SDS011;2151;50.988;11.068;2023-06-22T13:42:31;107.30;;;8.37;;
4274;SDS011;2151;50.988;11.068;2023-06-22T13:44:58;110.93;;;8.13;;
4274;SDS011;2151;50.988;11.068;2023-06-22T13:47:24;105.77;;;7.17;;
4274;SDS011;2151;50.988;11.068;2023-06-22T13:49:53;109.00;;;8.30;;
4274;SDS011;2151;50.988;11.068;2023-06-22T13:52:19;110.63;;;8.80;;
4274;SDS011;2151;50.988;11.068;2023-06-22T13:54:45;107.00;;;8.00;;
4274;SDS011;2151;50.988;11.068;2023-06-22T13:57:12;107.03;;;7.97;;
4274;SDS011;2151;50.988;11.068;2023-06-22T13:59:38;109.40;;;8.20;;
4274;SDS011;2151;50.988;11.068;2023-06-22T14:02:05;105.83;;;8.33;;
4274;SDS011;2151;50.988;11.068;2023-06-22T14:04:32;117.03;;;9.40;;
4274;SDS011;2151;50.988;11.068;2023-06-22T14:06:58;106.77;;;8.20;;
4274;SDS011;2151;50.988;11.068;2023-06-22T14:09:25;107.43;;;8.90;;
4274;SDS011;2151;50.988;11.068;2023-06-22T14:11:53;113.57;;;9.10;;
4274;SDS011;2151;50.988;11.068;2023-06-22T14:14:20;107.00;;;8.80;;
4274;SDS011;2151;50.988;11.068;2023-06-22T14:16:46;108.60;;;8.40;;
4274;SDS011;2151;50.988;11.068;2023-06-22T14:19:18;107.40;;;8.90;;
4274;SDS011;2151;50.988;11.068;2023-06-22T14:21:45;104.83;;;8.80;;
4274;SDS011;2151;50.988;11.068;2023-06-22T14:24:11;105.37;;;8.10;;
4274;SDS011;2151;50.988;11.068;2023-06-22T14:26:38;107.23;;;8.37;;
4274;SDS011;2151;50.988;11.068;2023-06-22T14:29:04;104.20;;;8.30;;
4274;SDS011;2151;50.988;11.068;2023-06-22T14:31:31;106.20;;;8.33;;
4274;SDS011;2151;50.988;11.068;2023-06-22T14:33:57;105.07;;;8.20;;
4274;SDS011;2151;50.988;11.068;2023-06-22T14:36:24;104.67;;;8.00;;
4274;SDS011;2151;50.988;11.068;2023-06-22T14:38:50;114.07;;;8.93;;
4274;SDS011;2151;50.988;11.068;2023-06-22T14:41:18;106.50;;;8.47;;
4274;SDS011;2151;50.988;11.068;2023-06-22T14:43:45;113.80;;;8.57;;
4274;SDS011;2151;50.988;11.068;2023-06-22T14:46:13;107.07;;;8.13;;